Time;durP1;ratioP1;P1;durP2;ratioP2;P2;SDS_P1;SDS_P2;PMS_P1;PMS_P2;Temp;Humidity;BMP_temperature;BMP_pressure;BME280_temperature;BME280_humidity;BME280_pressure;Samples;Min_cycle;Max_cycle;Signal;HPM_P1;HPM_P2
2023/07/02 00:01:48;;;;;;;24.97;24.10;;;20.40;99.90;;;;;;5032677;28;20572;-62
2023/07/02 00:04:16;;;;;;;26.10;25.20;;;20.30;99.90;;;;;;5052006;28;20673;-64
2023/07/02 00:06:43;;;;;;;24.77;23.90;;;20.30;99.90;;;;;;5053886;28;20220;-64
2023/07/02 00:09:10;;;;;;;24.75;23.85;;;20.20;99.90;;;;;;5055471;28;20212;-64
2023/07/02 00:11:38;;;;;;;23.70;22.90;;;20.20;99.90;;;;;;5033119;28;20205;-64
2023/07/02 00:14:05;;;;;;;24.35;23.55;;;20.20;99.90;;;;;;5034044;28;20239;-64
2023/07/02 00:16:33;;;;;;;23.27;22.48;;;20.20;99.90;;;;;;5036545;28;20292;-63
2023/07/02 00:19:00;;;;;;;22.40;21.60;;;20.20;99.90;;;;;;5061578;22;20224;-67
2023/07/02 00:21:28;;;;;;;23.30;22.50;;;20.20;99.90;;;;;;5052720;28;20737;-68
2023/07/02 00:23:56;;;;;;;24.50;23.70;;;20.20;99.90;;;;;;5048422;28;20230;-66
2023/07/02 00:26:24;;;;;;;20.90;20.20;;;20.20;99.90;;;;;;5055740;28;20208;-68
2023/07/02 00:28:51;;;;;;;23.45;22.63;;;20.20;99.90;;;;;;5056145;28;20233;-67
2023/07/02 00:31:18;;;;;;;26.77;25.88;;;20.10;99.90;;;;;;5054613;28;20207;-65
2023/07/02 00:33:46;;;;;;;24.27;23.45;;;20.10;99.90;;;;;;5056675;28;20210;-66
2023/07/02 00:36:14;;;;;;;24.13;23.30;;;20.10;99.90;;;;;;5056204;28;20200;-66
2023/07/02 00:38:43;;;;;;;23.75;22.92;;;20.20;99.90;;;;;;5054936;28;20259;-67
2023/07/02 00:41:10;;;;;;;23.30;22.50;;;20.10;99.90;;;;;;5054580;28;20207;-68
2023/07/02 00:43:39;;;;;;;24.35;23.52;;;20.00;99.90;;;;;;5055751;28;20604;-65
2023/07/02 00:46:06;;;;;;;24.97;24.10;;;20.00;99.90;;;;;;5056652;28;20220;-67
2023/07/02 00:48:33;;;;;;;25.45;24.58;;;20.10;99.90;;;;;;5057020;28;20318;-66
2023/07/02 00:51:02;;;;;;;24.20;23.38;;;20.00;99.90;;;;;;5054588;28;20691;-67
2023/07/02 00:53:28;;;;;;;26.00;25.10;;;20.10;99.90;;;;;;5055369;28;20211;-66
2023/07/02 00:55:55;;;;;;;25.05;24.20;;;20.20;99.90;;;;;;5062553;28;20638;-67
2023/07/02 00:58:22;;;;;;;25.75;24.88;;;20.20;99.90;;;;;;5061508;28;20306;-68
2023/07/02 01:00:49;;;;;;;29.42;28.40;;;20.30;99.90;;;;;;5054472;28;20211;-66
2023/07/02 01:03:16;;;;;;;26.83;25.90;;;20.30;99.90;;;;;;5055278;28;20212;-66
2023/07/02 01:05:43;;;;;;;27.43;26.47;;;20.30;99.90;;;;;;5063443;28;20228;-66
2023/07/02 01:08:11;;;;;;;29.02;27.92;;;20.20;99.90;;;;;;5062929;28;20224;-67
2023/07/02 01:10:39;;;;;;;28.17;27.17;;;20.20;99.90;;;;;;5052661;28;20303;-68
2023/07/02 01:13:11;;;;;;;30.55;29.48;;;20.30;99.90;;;;;;5053794;28;20211;-66
2023/07/02 01:15:38;;;;;;;28.30;27.33;;;20.20;99.90;;;;;;5053343;28;20206;-66
2023/07/02 01:18:06;;;;;;;32.33;31.20;;;20.20;99.90;;;;;;5053014;28;20242;-66
2023/07/02 01:20:35;;;;;;;38.10;36.75;;;20.30;99.90;;;;;;5052597;28;20204;-69
2023/07/02 01:23:03;;;;;;;38.42;37.05;;;20.20;99.90;;;;;;5053041;28;20206;-67
2023/07/02 01:25:30;;;;;;;38.15;36.83;;;20.20;99.90;;;;;;5048922;28;20212;-66
2023/07/02 01:27:58;;;;;;;31.92;30.83;;;20.10;99.90;;;;;;5053756;28;20243;-68
2023/07/02 01:30:26;;;;;;;40.20;38.83;;;20.20;99.90;;;;;;5053903;28;20666;-66
2023/07/02 01:32:53;;;;;;;37.05;35.78;;;20.10;99.90;;;;;;5054250;28;20204;-66
2023/07/02 01:35:20;;;;;;;45.08;43.53;;;20.10;99.90;;;;;;5053772;28;20199;-66
2023/07/02 01:37:48;;;;;;;39.38;38.00;;;20.00;99.90;;;;;;5052900;28;20590;-65
2023/07/02 01:40:15;;;;;;;38.42;37.03;;;20.00;99.90;;;;;;5053449;28;20214;-67
2023/07/02 01:42:42;;;;;;;49.22;47.53;;;20.00;99.90;;;;;;5054794;28;20215;-67
2023/07/02 01:45:09;;;;;;;56.07;54.17;;;19.90;99.90;;;;;;5055499;28;20212;-66
2023/07/02 01:47:36;;;;;;;50.90;49.10;;;19.90;99.90;;;;;;5053708;28;20228;-65
2023/07/02 01:50:05;;;;;;;54.85;52.85;;;19.90;99.90;;;;;;5052505;28;20640;-65
2023/07/02 01:52:33;;;;;;;52.42;50.58;;;19.70;99.90;;;;;;5053268;28;20611;-66
2023/07/02 01:55:03;;;;;;;57.58;55.58;;;19.60;99.90;;;;;;5053416;28;20207;-67
2023/07/02 01:57:30;;;;;;;64.73;62.47;;;19.50;99.90;;;;;;5053616;28;20223;-68
2023/07/02 01:59:58;;;;;;;76.40;73.78;;;19.40;99.90;;;;;;5052366;28;20204;-67
2023/07/02 02:02:24;;;;;;;77.43;74.70;;;19.30;99.90;;;;;;5052047;28;20207;-67
2023/07/02 02:04:52;;;;;;;73.35;70.78;;;19.20;99.90;;;;;;5051987;28;20234;-67
2023/07/02 02:07:19;;;;;;;63.30;61.03;;;19.10;99.90;;;;;;5051449;28;20239;-67
2023/07/02 02:09:45;;;;;;;57.60;55.60;;;19.00;99.90;;;;;;5051344;28;20212;-67
2023/07/02 02:12:14;;;;;;;59.87;57.80;;;18.90;99.90;;;;;;5052306;28;20214;-67
2023/07/02 02:14:42;;;;;;;133.48;127.20;;;18.70;99.90;;;;;;5051724;28;20204;-67
2023/07/02 02:17:08;;;;;;;43.43;41.93;;;18.70;99.90;;;;;;5054671;28;20211;-67
2023/07/02 02:19:35;;;;;;;67.90;65.33;;;18.70;99.90;;;;;;5055100;28;20946;-67
2023/07/02 02:22:02;;;;;;;35.17;33.83;;;18.60;99.90;;;;;;5056449;28;20235;-67
2023/07/02 02:24:29;;;;;;;27.35;26.38;;;18.50;99.90;;;;;;5051903;28;20295;-66
2023/07/02 02:26:56;;;;;;;28.73;27.48;;;18.40;99.90;;;;;;5051849;28;20234;-67
2023/07/02 02:29:24;;;;;;;36.28;34.97;;;18.20;99.90;;;;;;5050059;28;20678;-66
2023/07/02 02:31:51;;;;;;;23.83;22.97;;;18.10;99.90;;;;;;5048994;28;20207;-68
2023/07/02 02:34:18;;;;;;;19.23;18.57;;;17.90;99.90;;;;;;5052608;28;20210;-65
2023/07/02 02:36:46;;;;;;;17.40;16.73;;;17.80;99.90;;;;;;5056764;28;20275;-67
2023/07/02 02:39:13;;;;;;;13.98;13.48;;;17.80;99.90;;;;;;5064158;28;20295;-66
2023/07/02 02:41:40;;;;;;;13.32;12.85;;;17.80;99.90;;;;;;5054714;28;20228;-66
2023/07/02 02:44:07;;;;;;;13.90;13.40;;;17.90;99.90;;;;;;5059423;28;20210;-65
2023/07/02 02:46:35;;;;;;;13.75;13.25;;;17.90;99.90;;;;;;5054889;28;20230;-67
2023/07/02 02:49:02;;;;;;;12.88;12.35;;;17.90;99.90;;;;;;5051793;28;20224;-67
2023/07/02 02:51:29;;;;;;;11.80;11.33;;;17.90;99.90;;;;;;5052395;28;20207;-66
2023/07/02 02:53:56;;;;;;;11.97;11.50;;;17.90;99.90;;;;;;5052132;28;20215;-66
2023/07/02 02:56:23;;;;;;;11.33;10.93;;;17.90;99.90;;;;;;5052775;28;20204;-67
2023/07/02 02:58:49;;;;;;;12.40;11.95;;;18.00;99.90;;;;;;5052389;28;20736;-68
2023/07/02 03:01:16;;;;;;;10.85;10.40;;;18.00;99.90;;;;;;5051304;28;20283;-65
2023/07/02 03:03:45;;;;;;;11.43;11.03;;;18.00;99.90;;;;;;5051392;28;20760;-67
2023/07/02 03:06:14;;;;;;;11.70;11.30;;;18.00;99.90;;;;;;5051559;28;20213;-69
2023/07/02 03:08:41;;;;;;;11.50;11.10;;;18.10;99.90;;;;;;5051594;28;20344;-66
2023/07/02 03:11:08;;;;;;;11.67;11.27;;;18.20;99.90;;;;;;5050510;28;20238;-66
2023/07/02 03:13:35;;;;;;;11.98;11.57;;;18.30;99.90;;;;;;5051312;28;20204;-66
2023/07/02 03:16:01;;;;;;;11.98;11.52;;;18.30;99.90;;;;;;5051260;28;20212;-66
2023/07/02 03:18:28;;;;;;;11.40;11.00;;;18.30;99.90;;;;;;5050187;28;20616;-67
2023/07/02 03:20:56;;;;;;;11.05;10.65;;;18.30;99.90;;;;;;5050295;28;20207;-67
2023/07/02 03:23:23;;;;;;;11.27;10.88;;;18.30;99.90;;;;;;5050961;28;20211;-67
2023/07/02 03:25:50;;;;;;;11.85;11.45;;;18.40;99.90;;;;;;5050897;28;20208;-68
2023/07/02 03:28:17;;;;;;;12.13;11.63;;;18.40;99.90;;;;;;5050632;28;20269;-66
2023/07/02 03:30:44;;;;;;;12.70;12.27;;;18.40;99.90;;;;;;5050252;28;20204;-67
2023/07/02 03:33:10;;;;;;;12.07;11.67;;;18.30;99.90;;;;;;5050220;28;20208;-68
2023/07/02 03:35:37;;;;;;;12.03;11.63;;;18.20;99.90;;;;;;5048834;28;20291;-66
2023/07/02 03:38:06;;;;;;;11.93;11.52;;;18.20;99.90;;;;;;5050642;28;20633;-67
2023/07/02 03:40:33;;;;;;;11.80;11.30;;;18.20;99.90;;;;;;5049496;28;20214;-65
2023/07/02 03:43:00;;;;;;;11.75;11.35;;;18.10;99.90;;;;;;5050234;28;20226;-67
2023/07/02 03:45:27;;;;;;;11.97;11.37;;;18.00;99.90;;;;;;5050058;28;20557;-67
2023/07/02 03:47:54;;;;;;;11.40;11.00;;;18.00;99.90;;;;;;5050366;28;20242;-67
2023/07/02 03:50:21;;;;;;;10.93;10.52;;;17.90;99.90;;;;;;5049314;28;20203;-66
2023/07/02 03:52:47;;;;;;;11.60;11.20;;;18.00;99.90;;;;;;5049647;28;20736;-65
2023/07/02 03:55:16;;;;;;;10.83;10.43;;;18.00;99.90;;;;;;5050261;28;20298;-66
2023/07/02 03:57:43;;;;;;;10.90;10.50;;;18.00;99.90;;;;;;5049977;28;20235;-65
2023/07/02 04:00:11;;;;;;;11.23;10.83;;;18.00;99.90;;;;;;5049346;28;20602;-66
2023/07/02 04:02:38;;;;;;;13.70;13.20;;;18.00;99.90;;;;;;5049734;28;20199;-65
2023/07/02 04:05:05;;;;;;;13.83;13.33;;;17.90;99.90;;;;;;5050268;28;20207;-66
2023/07/02 04:07:32;;;;;;;14.57;14.07;;;17.90;99.90;;;;;;5049622;28;20321;-65
2023/07/02 04:09:59;;;;;;;15.40;14.87;;;17.90;99.90;;;;;;5061214;28;20200;-68
2023/07/02 04:12:27;;;;;;;14.63;14.07;;;18.00;99.90;;;;;;5055425;28;20291;-66
2023/07/02 04:14:54;;;;;;;16.03;15.43;;;18.00;99.90;;;;;;5051282;28;20212;-66
2023/07/02 04:17:21;;;;;;;15.43;14.93;;;18.00;99.90;;;;;;5050358;28;20305;-67
2023/07/02 04:19:48;;;;;;;14.27;13.73;;;18.00;99.90;;;;;;5049883;28;20211;-67
2023/07/02 04:22:15;;;;;;;14.57;14.07;;;18.00;99.90;;;;;;5040706;28;20211;-66
2023/07/02 04:24:42;;;;;;;14.27;13.77;;;18.00;99.90;;;;;;5050738;28;20199;-67
2023/07/02 04:27:09;;;;;;;14.97;14.37;;;18.10;99.90;;;;;;5054977;28;20222;-68
2023/07/02 04:29:37;;;;;;;15.80;15.20;;;18.20;99.90;;;;;;5075070;28;20231;-68
2023/07/02 04:32:04;;;;;;;14.63;14.13;;;18.10;99.90;;;;;;5065494;28;20200;-66
2023/07/02 04:34:31;;;;;;;13.88;13.38;;;18.20;99.90;;;;;;5060719;28;20898;-68
2023/07/02 04:36:58;;;;;;;13.77;13.27;;;18.10;99.90;;;;;;5061083;28;20204;-66
2023/07/02 04:39:25;;;;;;;13.07;12.57;;;18.10;99.90;;;;;;5049710;28;20736;-67
2023/07/02 04:41:52;;;;;;;14.80;14.30;;;18.00;99.90;;;;;;5065699;28;20283;-65
2023/07/02 04:44:21;;;;;;;13.57;13.07;;;18.00;99.90;;;;;;5047252;28;20200;-66
2023/07/02 04:46:50;;;;;;;13.25;12.75;;;18.00;99.90;;;;;;5050773;28;20204;-68
2023/07/02 04:49:16;;;;;;;12.17;11.70;;;18.00;99.90;;;;;;5046681;28;20238;-66
2023/07/02 04:51:43;;;;;;;13.60;13.10;;;18.00;99.90;;;;;;5050048;28;20210;-66
2023/07/02 04:54:10;;;;;;;14.25;13.75;;;17.90;99.90;;;;;;5049237;28;20219;-66
2023/07/02 04:56:37;;;;;;;12.27;11.88;;;17.90;99.90;;;;;;5040974;28;20291;-67
2023/07/02 04:59:04;;;;;;;12.13;11.67;;;18.00;99.90;;;;;;5037661;28;20226;-67
2023/07/02 05:01:30;;;;;;;12.97;12.47;;;17.90;99.90;;;;;;5040166;28;20219;-67
2023/07/02 05:03:59;;;;;;;12.30;11.90;;;17.90;99.90;;;;;;5044775;28;20217;-64
2023/07/02 05:06:25;;;;;;;14.13;13.63;;;17.90;99.90;;;;;;5053350;28;20204;-67
2023/07/02 05:08:52;;;;;;;12.27;11.87;;;18.00;99.90;;;;;;5062541;28;20255;-64
2023/07/02 05:11:19;;;;;;;11.93;11.53;;;18.00;99.90;;;;;;5074091;28;20203;-67
2023/07/02 05:13:46;;;;;;;11.53;11.13;;;17.90;99.90;;;;;;5073370;28;20675;-67
2023/07/02 05:16:13;;;;;;;11.90;11.50;;;18.00;99.90;;;;;;5073560;28;20207;-65
2023/07/02 05:18:40;;;;;;;11.90;11.50;;;18.00;99.90;;;;;;5072696;28;20774;-66
2023/07/02 05:21:08;;;;;;;12.33;11.93;;;18.10;99.90;;;;;;5072267;28;20214;-65
2023/07/02 05:23:35;;;;;;;11.50;11.10;;;18.10;99.90;;;;;;5073178;28;20209;-67
2023/07/02 05:26:03;;;;;;;12.20;11.73;;;18.10;99.90;;;;;;5057247;28;20210;-67
2023/07/02 05:28:29;;;;;;;12.17;11.77;;;18.10;99.90;;;;;;5053478;28;20227;-64
2023/07/02 05:30:56;;;;;;;12.37;11.97;;;18.20;99.90;;;;;;5052913;28;20239;-66
2023/07/02 05:33:23;;;;;;;13.63;13.13;;;18.20;99.90;;;;;;5052719;28;20208;-65
2023/07/02 05:35:50;;;;;;;11.60;11.20;;;18.20;99.90;;;;;;5053880;28;20612;-66
2023/07/02 05:38:19;;;;;;;12.30;11.90;;;18.20;99.90;;;;;;5052637;28;20592;-65
2023/07/02 05:40:46;;;;;;;12.00;11.60;;;18.30;99.90;;;;;;5053585;28;20208;-66
2023/07/02 05:43:13;;;;;;;12.57;12.07;;;18.30;99.90;;;;;;5058176;28;20801;-65
2023/07/02 05:45:40;;;;;;;11.77;11.37;;;18.30;99.90;;;;;;5052210;28;20732;-65
2023/07/02 05:48:07;;;;;;;11.70;11.30;;;18.50;99.90;;;;;;5053447;28;20242;-64
2023/07/02 05:50:34;;;;;;;12.33;11.83;;;18.60;99.90;;;;;;5053066;28;20200;-65
2023/07/02 05:53:01;;;;;;;12.17;11.77;;;18.60;99.90;;;;;;5053788;28;20212;-67
2023/07/02 05:55:29;;;;;;;12.25;11.85;;;18.70;99.90;;;;;;5053800;28;20587;-66
2023/07/02 05:57:57;;;;;;;12.20;11.80;;;18.60;99.90;;;;;;5054264;28;20283;-66
2023/07/02 06:00:24;;;;;;;12.87;12.37;;;18.60;99.90;;;;;;5052481;28;20200;-64
2023/07/02 06:02:51;;;;;;;12.60;12.20;;;18.60;99.90;;;;;;5053327;28;20277;-67
2023/07/02 06:05:18;;;;;;;12.20;11.80;;;18.60;99.90;;;;;;5053692;28;20204;-66
2023/07/02 06:07:44;;;;;;;12.07;11.67;;;18.70;99.90;;;;;;5053471;28;20322;-65
2023/07/02 06:10:11;;;;;;;12.10;11.70;;;18.80;99.90;;;;;;5051323;28;20619;-65
2023/07/02 06:12:39;;;;;;;12.50;12.02;;;18.90;99.90;;;;;;5052424;28;20218;-66
2023/07/02 06:15:07;;;;;;;12.40;12.00;;;18.90;99.90;;;;;;5052671;28;20204;-66
2023/07/02 06:17:34;;;;;;;11.73;11.32;;;19.00;99.90;;;;;;5051884;28;20227;-67
2023/07/02 06:20:04;;;;;;;12.13;11.63;;;19.00;99.90;;;;;;5052502;28;20210;-65
2023/07/02 06:22:31;;;;;;;13.53;13.03;;;19.10;99.90;;;;;;5056310;28;20204;-65
2023/07/02 06:24:58;;;;;;;12.10;11.60;;;19.20;99.90;;;;;;5055227;28;20208;-65
2023/07/02 06:27:25;;;;;;;12.25;11.85;;;19.20;99.90;;;;;;5051679;28;20228;-65
2023/07/02 06:29:53;;;;;;;13.15;12.65;;;19.20;99.90;;;;;;5050786;28;20214;-58
2023/07/02 06:32:20;;;;;;;15.17;14.67;;;19.30;99.90;;;;;;5051153;28;20969;-57
2023/07/02 06:34:46;;;;;;;14.13;13.63;;;19.60;99.90;;;;;;5051626;28;20681;-57
2023/07/02 06:37:13;;;;;;;12.23;11.83;;;20.10;99.90;;;;;;5050987;28;20200;-57
2023/07/02 06:39:40;;;;;;;12.98;12.52;;;20.40;99.90;;;;;;5051984;28;20207;-60
2023/07/02 06:42:07;;;;;;;11.77;11.27;;;20.40;99.90;;;;;;5052730;28;20203;-57
2023/07/02 06:44:34;;;;;;;12.07;11.60;;;20.50;99.90;;;;;;5051809;28;20206;-58
2023/07/02 06:47:02;;;;;;;13.43;12.93;;;20.60;99.90;;;;;;5051547;28;20214;-57
2023/07/02 06:49:29;;;;;;;10.67;10.27;;;20.90;99.90;;;;;;5051879;28;20220;-57
2023/07/02 06:51:56;;;;;;;11.65;11.25;;;21.00;99.90;;;;;;5051519;28;20661;-57
2023/07/02 06:54:23;;;;;;;11.65;11.15;;;21.00;99.90;;;;;;5051703;28;20210;-57
2023/07/02 06:56:49;;;;;;;11.57;11.18;;;20.80;99.90;;;;;;5050885;28;20219;-57
2023/07/02 06:59:20;;;;;;;13.48;12.98;;;20.60;99.90;;;;;;5050646;28;20231;-58
2023/07/02 07:01:47;;;;;;;13.90;13.37;;;20.50;99.90;;;;;;5051721;28;20192;-57
2023/07/02 07:04:15;;;;;;;14.52;14.02;;;20.60;99.90;;;;;;5052016;28;20214;-58
2023/07/02 07:06:42;;;;;;;15.43;14.85;;;20.60;99.90;;;;;;5050825;28;20238;-57
2023/07/02 07:09:09;;;;;;;16.77;16.17;;;20.70;99.90;;;;;;5053111;28;20318;-57
2023/07/02 07:11:36;;;;;;;17.35;16.75;;;21.00;99.90;;;;;;5050731;28;20250;-58
2023/07/02 07:14:03;;;;;;;15.50;14.90;;;21.30;99.90;;;;;;5067068;28;20234;-57
2023/07/02 07:16:30;;;;;;;14.25;13.75;;;21.50;99.90;;;;;;5062841;28;20295;-57
2023/07/02 07:18:57;;;;;;;17.45;16.85;;;21.20;99.90;;;;;;5051359;28;20228;-57
2023/07/02 07:21:25;;;;;;;13.10;12.60;;;21.20;99.90;;;;;;5050402;28;20583;-57
2023/07/02 07:23:52;;;;;;;16.20;15.60;;;21.30;99.90;;;;;;5050773;28;20200;-56
2023/07/02 07:26:18;;;;;;;14.73;14.13;;;21.30;99.90;;;;;;5050093;28;20204;-59
2023/07/02 07:28:45;;;;;;;17.73;17.13;;;21.40;99.90;;;;;;5049601;28;20224;-57
2023/07/02 07:31:12;;;;;;;13.35;12.85;;;21.50;99.90;;;;;;5049756;28;20324;-57
2023/07/02 07:33:39;;;;;;;13.05;12.55;;;21.70;99.90;;;;;;5051145;28;20191;-57
2023/07/02 07:36:06;;;;;;;12.90;12.40;;;21.60;99.90;;;;;;5050026;28;20331;-57
2023/07/02 07:38:34;;;;;;;15.70;15.13;;;21.50;99.90;;;;;;5049497;28;20224;-57
2023/07/02 07:41:01;;;;;;;15.55;14.95;;;21.40;99.90;;;;;;5049558;28;20559;-57
2023/07/02 07:43:28;;;;;;;15.90;15.30;;;21.50;99.90;;;;;;5049850;28;20767;-58
2023/07/02 07:45:55;;;;;;;14.50;13.90;;;21.50;99.90;;;;;;5049177;28;20211;-57
2023/07/02 07:48:22;;;;;;;13.82;13.23;;;21.50;99.90;;;;;;5050218;28;20223;-57
2023/07/02 07:50:49;;;;;;;14.77;14.18;;;21.50;99.90;;;;;;5048837;28;20222;-58
2023/07/02 07:53:16;;;;;;;13.68;13.10;;;21.50;99.90;;;;;;5049566;28;20211;-57
2023/07/02 07:55:44;;;;;;;15.32;14.73;;;21.30;99.90;;;;;;5049838;28;20211;-58
2023/07/02 07:58:11;;;;;;;18.65;17.95;;;21.10;99.90;;;;;;5049969;28;20216;-58
2023/07/02 08:00:38;;;;;;;16.70;16.10;;;21.10;99.90;;;;;;5049163;28;20230;-57
2023/07/02 08:03:05;;;;;;;18.17;17.48;;;21.10;99.90;;;;;;5049992;28;20189;-57
2023/07/02 08:05:32;;;;;;;18.08;17.27;;;21.20;99.90;;;;;;5049830;28;20211;-57
2023/07/02 08:07:58;;;;;;;18.95;18.25;;;21.50;99.90;;;;;;5049753;28;20228;-57
2023/07/02 08:10:27;;;;;;;18.80;18.00;;;21.80;99.90;;;;;;5049164;28;20212;-58
2023/07/02 08:12:55;;;;;;;17.00;16.30;;;21.90;99.90;;;;;;5050142;28;20216;-58
2023/07/02 08:15:22;;;;;;;18.65;17.92;;;22.10;99.90;;;;;;5052251;28;20203;-57
2023/07/02 08:17:51;;;;;;;19.27;18.45;;;22.10;99.90;;;;;;5047646;28;20312;-57
2023/07/02 08:20:18;;;;;;;19.65;18.95;;;22.20;99.90;;;;;;5045147;28;20334;-58
2023/07/02 08:22:45;;;;;;;22.30;21.40;;;22.10;99.90;;;;;;5049083;28;20286;-57
2023/07/02 08:25:12;;;;;;;21.73;20.92;;;22.30;99.90;;;;;;5051716;28;20218;-58
2023/07/02 08:27:39;;;;;;;21.77;20.88;;;22.70;99.90;;;;;;5051634;28;20253;-59
2023/07/02 08:30:09;;;;;;;20.98;20.17;;;22.60;99.90;;;;;;5055448;28;20713;-57
2023/07/02 08:32:36;;;;;;;21.90;21.00;;;22.80;99.90;;;;;;5059435;28;20214;-58
2023/07/02 08:35:03;;;;;;;22.92;22.02;;;22.80;99.90;;;;;;5050648;28;20314;-57
2023/07/02 08:37:29;;;;;;;22.40;21.50;;;22.90;99.90;;;;;;5047307;28;20235;-58
2023/07/02 08:39:56;;;;;;;22.15;21.33;;;22.90;99.90;;;;;;5053507;28;20204;-58
2023/07/02 08:42:23;;;;;;;21.50;20.70;;;23.00;99.90;;;;;;5048401;28;20212;-57
2023/07/02 08:44:55;;;;;;;20.65;19.85;;;23.20;99.90;;;;;;5048763;28;20200;-64
2023/07/02 08:47:23;;;;;;;20.88;20.08;;;23.30;99.90;;;;;;5052269;28;20234;-65
2023/07/02 08:49:51;;;;;;;19.75;18.95;;;23.50;99.90;;;;;;5052351;28;20952;-65
2023/07/02 08:52:18;;;;;;;19.73;18.92;;;23.30;99.90;;;;;;5053513;28;20203;-65
2023/07/02 08:54:46;;;;;;;20.80;20.00;;;23.40;99.90;;;;;;5054467;28;20204;-65
2023/07/02 08:57:13;;;;;;;19.55;18.75;;;23.30;99.90;;;;;;5055727;28;20203;-64
2023/07/02 08:59:39;;;;;;;18.63;17.92;;;23.30;99.90;;;;;;5052514;28;20196;-66
2023/07/02 09:02:07;;;;;;;18.95;18.15;;;23.40;99.90;;;;;;5053838;28;20235;-64
2023/07/02 09:04:35;;;;;;;18.88;18.15;;;23.60;99.90;;;;;;5055109;28;20684;-65
2023/07/02 09:07:06;;;;;;;18.17;17.48;;;23.60;99.90;;;;;;5053970;28;20595;-64
2023/07/02 09:09:33;;;;;;;17.77;17.08;;;23.70;99.90;;;;;;5055913;28;20319;-63
2023/07/02 09:12:00;;;;;;;18.15;17.45;;;23.70;99.90;;;;;;5054839;28;20208;-64
2023/07/02 09:14:28;;;;;;;19.00;18.25;;;23.90;99.90;;;;;;5053714;28;20219;-66
2023/07/02 09:17:06;;;;;;;19.35;18.55;;;23.90;99.90;;;;;;5053400;28;20207;-66
2023/07/02 09:19:35;;;;;;;18.08;17.38;;;24.10;99.90;;;;;;5053918;28;20212;-66
2023/07/02 09:22:03;;;;;;;17.35;16.65;;;24.30;99.90;;;;;;5053888;28;20208;-66
2023/07/02 09:24:31;;;;;;;18.05;17.30;;;24.30;99.90;;;;;;5053896;28;20291;-64
2023/07/02 09:26:59;;;;;;;17.75;17.02;;;24.10;99.90;;;;;;5053713;28;20200;-65
2023/07/02 09:29:28;;;;;;;18.48;17.67;;;24.00;99.90;;;;;;5052726;28;20227;-65
2023/07/02 09:31:55;;;;;;;18.13;17.42;;;24.20;99.90;;;;;;5054279;28;20215;-65
2023/07/02 09:34:29;;;;;;;19.08;18.17;;;24.30;99.90;;;;;;5053942;28;20824;-65
2023/07/02 09:36:58;;;;;;;18.45;17.65;;;24.40;99.90;;;;;;5053221;28;20597;-65
2023/07/02 09:39:27;;;;;;;19.13;18.33;;;24.60;99.90;;;;;;5058089;28;20256;-64
2023/07/02 09:41:57;;;;;;;19.15;18.45;;;24.50;99.90;;;;;;5056815;28;20211;-64
2023/07/02 09:44:28;;;;;;;20.60;19.80;;;24.70;99.90;;;;;;5056170;28;20246;-64
2023/07/02 09:47:04;;;;;;;19.45;18.75;;;24.70;99.90;;;;;;5054251;28;20634;-66
2023/07/02 09:49:33;;;;;;;18.35;17.65;;;24.60;99.90;;;;;;5053820;28;20211;-64
2023/07/02 09:52:03;;;;;;;18.92;18.13;;;24.20;99.90;;;;;;5054320;28;20674;-65
2023/07/02 09:54:30;;;;;;;19.25;18.45;;;23.90;99.90;;;;;;5053984;28;20562;-65
2023/07/02 09:56:57;;;;;;;18.80;18.05;;;24.00;99.90;;;;;;5056001;28;20290;-65
2023/07/02 09:59:24;;;;;;;19.35;18.60;;;24.20;99.90;;;;;;5053779;28;20612;-64
2023/07/02 10:01:51;;;;;;;19.52;18.73;;;24.60;99.90;;;;;;5053568;28;20204;-64
2023/07/02 10:04:19;;;;;;;18.45;17.65;;;24.40;99.90;;;;;;5053584;28;20204;-64
2023/07/02 10:06:48;;;;;;;18.48;17.77;;;24.50;99.90;;;;;;5053758;28;20204;-65
2023/07/02 10:09:16;;;;;;;17.38;16.70;;;24.60;99.90;;;;;;5053808;28;20219;-65
2023/07/02 10:11:44;;;;;;;18.42;17.73;;;24.70;99.90;;;;;;5054387;28;20266;-65
2023/07/02 10:14:10;;;;;;;18.25;17.55;;;25.00;99.90;;;;;;5053962;28;20210;-65
2023/07/02 10:16:50;;;;;;;19.25;18.50;;;25.20;99.90;;;;;;5053560;28;20218;-65
2023/07/02 10:19:17;;;;;;;19.15;18.45;;;25.30;99.90;;;;;;5053746;28;20227;-65
2023/07/02 10:21:45;;;;;;;18.75;17.95;;;25.30;99.90;;;;;;5054548;28;20203;-65
2023/07/02 10:24:13;;;;;;;16.17;15.57;;;25.50;99.90;;;;;;5053253;28;20644;-65
2023/07/02 10:26:53;;;;;;;15.25;14.65;;;25.60;99.90;;;;;;5054097;28;20212;-66
2023/07/02 10:29:20;;;;;;;16.88;16.17;;;25.70;99.90;;;;;;5052970;28;20285;-66
2023/07/02 10:31:49;;;;;;;15.57;14.88;;;25.80;99.90;;;;;;5054625;28;20283;-64
2023/07/02 10:34:16;;;;;;;15.80;15.20;;;25.90;99.90;;;;;;5053186;28;20208;-63
2023/07/02 10:36:43;;;;;;;15.77;15.18;;;26.00;99.90;;;;;;5052825;28;20212;-65
2023/07/02 10:39:10;;;;;;;15.88;15.27;;;26.20;99.90;;;;;;5052984;28;20224;-65
2023/07/02 10:41:37;;;;;;;16.25;15.55;;;26.10;99.90;;;;;;5053142;28;20208;-64
2023/07/02 10:44:09;;;;;;;16.45;15.77;;;25.90;99.90;;;;;;5052394;28;20204;-64
2023/07/02 10:46:44;;;;;;;15.65;14.98;;;25.90;99.90;;;;;;5053625;28;20662;-65
2023/07/02 10:49:11;;;;;;;15.15;14.45;;;25.90;99.90;;;;;;5052665;28;20231;-65
2023/07/02 10:51:39;;;;;;;17.80;17.08;;;25.90;99.90;;;;;;5052715;28;20204;-65
2023/07/02 10:54:06;;;;;;;14.90;14.30;;;25.90;99.90;;;;;;5052865;28;20204;-64
2023/07/02 10:56:33;;;;;;;14.57;13.98;;;25.80;99.90;;;;;;5053393;28;20645;-65
2023/07/02 10:59:00;;;;;;;15.13;14.52;;;25.70;99.90;;;;;;5052346;28;20220;-66
2023/07/02 11:01:29;;;;;;;14.25;13.68;;;25.60;99.90;;;;;;5052256;28;20299;-65
2023/07/02 11:03:58;;;;;;;14.23;13.52;;;25.70;99.90;;;;;;5057669;28;20204;-65
2023/07/02 11:06:26;;;;;;;193.77;175.52;;;25.70;99.90;;;;;;5053533;28;20211;-65
2023/07/02 11:08:54;;;;;;;14.73;14.05;;;25.70;99.90;;;;;;5063600;28;20231;-65
2023/07/02 11:11:22;;;;;;;16.52;15.82;;;25.70;99.90;;;;;;5069669;28;20222;-65
2023/07/02 11:13:50;;;;;;;22.38;21.48;;;25.90;99.90;;;;;;5065598;28;20276;-65
2023/07/02 11:16:25;;;;;;;14.18;13.57;;;26.00;99.90;;;;;;5061252;28;20188;-65
2023/07/02 11:18:55;;;;;;;13.50;13.00;;;26.00;99.90;;;;;;5054001;28;20249;-64
2023/07/02 11:21:22;;;;;;;14.13;13.52;;;26.00;99.90;;;;;;5055952;28;20291;-65
2023/07/02 11:23:48;;;;;;;14.57;13.98;;;26.30;99.90;;;;;;5053769;28;20204;-65
2023/07/02 11:26:15;;;;;;;15.23;14.63;;;26.30;99.90;;;;;;5055610;28;20202;-65
2023/07/02 11:28:52;;;;;;;13.80;13.30;;;26.30;99.90;;;;;;5055227;28;20231;-65
2023/07/02 11:31:28;;;;;;;15.00;14.40;;;26.20;99.90;;;;;;5055390;28;20261;-66
2023/07/02 11:33:56;;;;;;;14.38;13.77;;;26.40;99.90;;;;;;5053865;28;20580;-65
2023/07/02 11:36:25;;;;;;;14.38;13.77;;;26.30;99.90;;;;;;5055089;28;20208;-66
2023/07/02 11:38:52;;;;;;;14.10;13.50;;;26.20;99.90;;;;;;5054073;28;20327;-65
2023/07/02 11:41:20;;;;;;;12.82;12.32;;;26.10;99.90;;;;;;5054229;28;20204;-65
2023/07/02 11:43:47;;;;;;;13.10;12.50;;;26.10;99.90;;;;;;5052054;28;20745;-65
2023/07/02 11:46:14;;;;;;;13.02;12.43;;;26.30;99.90;;;;;;5051932;28;20207;-65
2023/07/02 11:48:41;;;;;;;13.30;12.80;;;26.60;99.90;;;;;;5053054;28;20483;-65
2023/07/02 11:51:10;;;;;;;15.55;14.95;;;26.80;99.90;;;;;;5050594;28;20235;-64
2023/07/02 11:53:36;;;;;;;17.00;16.33;;;26.70;99.90;;;;;;5051515;28;20772;-65
2023/07/02 11:56:03;;;;;;;21.80;20.90;;;26.40;99.90;;;;;;5052210;28;20208;-66
2023/07/02 11:58:30;;;;;;;13.88;12.98;;;26.40;99.90;;;;;;5051450;28;20232;-65
2023/07/02 12:00:57;;;;;;;12.63;12.13;;;26.50;99.90;;;;;;5051527;28;20200;-66
2023/07/02 12:03:24;;;;;;;12.60;12.10;;;26.60;99.90;;;;;;5051678;28;20287;-66
2023/07/02 12:05:51;;;;;;;12.57;12.07;;;26.60;99.90;;;;;;5053255;28;20227;-64
2023/07/02 12:08:19;;;;;;;12.90;12.40;;;26.60;99.90;;;;;;5052677;28;20224;-66
2023/07/02 12:10:45;;;;;;;12.35;11.85;;;26.70;99.90;;;;;;5053630;28;20223;-66
2023/07/02 12:13:12;;;;;;;13.60;13.10;;;26.60;99.90;;;;;;5059815;28;20203;-65
2023/07/02 12:15:39;;;;;;;13.32;12.82;;;26.80;99.90;;;;;;5060812;28;20282;-64
2023/07/02 12:18:06;;;;;;;24.38;23.38;;;26.70;99.90;;;;;;5058402;28;20242;-65
2023/07/02 12:20:33;;;;;;;24.85;23.95;;;26.80;99.90;;;;;;5047530;22;20245;-63
2023/07/02 12:23:00;;;;;;;24.52;23.52;;;26.90;99.90;;;;;;4991822;28;20564;-62
2023/07/02 12:25:28;;;;;;;23.83;22.90;;;27.00;99.90;;;;;;4994309;28;20206;-62
2023/07/02 12:27:55;;;;;;;31.73;30.42;;;27.10;99.90;;;;;;4994730;28;20217;-62